sensor_id;sensor_type;location;lat;lon;timestamp;P1;durP1;ratioP1;P2;durP2;ratioP2
18102;SDS011;9178;51.120;6.192;2023-04-15T00:00:08;5.57;;;3.30;;
18102;SDS011;9178;51.120;6.192;2023-04-15T00:02:36;7.00;;;3.53;;
18102;SDS011;9178;51.120;6.192;2023-04-15T00:05:03;5.50;;;3.10;;
18102;SDS011;9178;51.120;6.192;2023-04-15T00:07:32;4.80;;;3.17;;
18102;SDS011;9178;51.120;6.192;2023-04-15T00:09:59;5.53;;;3.00;;
18102;SDS011;9178;51.120;6.192;2023-04-15T00:12:26;8.33;;;3.40;;
18102;SDS011;9178;51.120;6.192;2023-04-15T00:14:53;8.77;;;3.30;;
18102;SDS011;9178;51.120;6.192;2023-04-15T00:17:21;8.07;;;3.63;;
18102;SDS011;9178;51.120;6.192;2023-04-15T00:19:48;5.43;;;3.50;;
18102;SDS011;9178;51.120;6.192;2023-04-15T00:22:14;6.23;;;3.17;;
18102;SDS011;9178;51.120;6.192;2023-04-15T00:24:43;8.53;;;3.50;;
18102;SDS011;9178;51.120;6.192;2023-04-15T00:27:10;6.33;;;3.50;;
18102;SDS011;9178;51.120;6.192;2023-04-15T00:29:37;6.13;;;3.60;;
18102;SDS011;9178;51.120;6.192;2023-04-15T00:32:04;8.87;;;4.20;;
18102;SDS011;9178;51.120;6.192;2023-04-15T00:34:31;7.37;;;4.57;;
18102;SDS011;9178;51.120;6.192;2023-04-15T00:36:58;6.50;;;4.50;;
18102;SDS011;9178;51.120;6.192;2023-04-15T00:39:25;8.53;;;4.60;;
18102;SDS011;9178;51.120;6.192;2023-04-15T00:41:53;6.00;;;3.80;;
18102;SDS011;9178;51.120;6.192;2023-04-15T00:44:21;7.73;;;4.10;;
18102;SDS011;9178;51.120;6.192;2023-04-15T00:46:49;5.03;;;3.90;;
18102;SDS011;9178;51.120;6.192;2023-04-15T00:49:17;8.07;;;4.30;;
18102;SDS011;9178;51.120;6.192;2023-04-15T00:51:44;7.57;;;4.20;;
18102;SDS011;9178;51.120;6.192;2023-04-15T00:54:11;5.93;;;4.37;;
18102;SDS011;9178;51.120;6.192;2023-04-15T00:56:38;6.67;;;4.10;;
18102;SDS011;9178;51.120;6.192;2023-04-15T00:59:06;9.13;;;5.57;;
18102;SDS011;9178;51.120;6.192;2023-04-15T01:01:34;8.47;;;5.40;;
18102;SDS011;9178;51.120;6.192;2023-04-15T01:04:02;8.53;;;5.37;;
18102;SDS011;9178;51.120;6.192;2023-04-15T01:06:30;9.67;;;5.07;;
18102;SDS011;9178;51.120;6.192;2023-04-15T01:08:57;8.87;;;5.20;;
18102;SDS011;9178;51.120;6.192;2023-04-15T01:11:25;8.67;;;4.33;;
18102;SDS011;9178;51.120;6.192;2023-04-15T01:13:53;6.27;;;4.53;;
18102;SDS011;9178;51.120;6.192;2023-04-15T01:16:23;7.00;;;4.13;;
18102;SDS011;9178;51.120;6.192;2023-04-15T01:18:50;7.40;;;4.70;;
18102;SDS011;9178;51.120;6.192;2023-04-15T01:21:17;8.23;;;4.83;;
18102;SDS011;9178;51.120;6.192;2023-04-15T01:23:46;8.73;;;4.77;;
18102;SDS011;9178;51.120;6.192;2023-04-15T01:26:14;5.87;;;4.37;;
18102;SDS011;9178;51.120;6.192;2023-04-15T01:28:42;8.17;;;4.83;;
18102;SDS011;9178;51.120;6.192;2023-04-15T01:31:09;8.20;;;5.30;;
18102;SDS011;9178;51.120;6.192;2023-04-15T01:33:37;7.03;;;4.63;;
18102;SDS011;9178;51.120;6.192;2023-04-15T01:36:06;7.23;;;4.93;;
18102;SDS011;9178;51.120;6.192;2023-04-15T01:38:34;8.73;;;4.97;;
18102;SDS011;9178;51.120;6.192;2023-04-15T01:41:02;7.50;;;4.93;;
18102;SDS011;9178;51.120;6.192;2023-04-15T01:43:32;8.77;;;4.70;;
18102;SDS011;9178;51.120;6.192;2023-04-15T01:46:00;9.53;;;5.17;;
18102;SDS011;9178;51.120;6.192;2023-04-15T01:48:27;6.97;;;4.50;;
18102;SDS011;9178;51.120;6.192;2023-04-15T01:50:54;9.50;;;4.60;;
18102;SDS011;9178;51.120;6.192;2023-04-15T01:53:22;7.27;;;4.40;;
18102;SDS011;9178;51.120;6.192;2023-04-15T01:55:50;6.50;;;4.20;;
18102;SDS011;9178;51.120;6.192;2023-04-15T01:58:17;8.53;;;5.50;;
18102;SDS011;9178;51.120;6.192;2023-04-15T02:00:46;9.17;;;5.47;;
18102;SDS011;9178;51.120;6.192;2023-04-15T02:03:12;8.27;;;4.57;;
18102;SDS011;9178;51.120;6.192;2023-04-15T02:05:42;7.87;;;4.83;;
18102;SDS011;9178;51.120;6.192;2023-04-15T02:08:09;8.33;;;5.50;;
18102;SDS011;9178;51.120;6.192;2023-04-15T02:10:36;7.97;;;4.37;;
18102;SDS011;9178;51.120;6.192;2023-04-15T02:13:03;7.03;;;4.80;;
18102;SDS011;9178;51.120;6.192;2023-04-15T02:15:33;6.67;;;4.70;;
18102;SDS011;9178;51.120;6.192;2023-04-15T02:18:02;8.07;;;4.80;;
18102;SDS011;9178;51.120;6.192;2023-04-15T02:20:29;11.03;;;4.70;;
18102;SDS011;9178;51.120;6.192;2023-04-15T02:22:56;7.07;;;5.03;;
18102;SDS011;9178;51.120;6.192;2023-04-15T02:25:23;8.73;;;5.37;;
18102;SDS011;9178;51.120;6.192;2023-04-15T02:27:50;8.57;;;5.47;;
18102;SDS011;9178;51.120;6.192;2023-04-15T02:30:17;8.77;;;5.47;;
18102;SDS011;9178;51.120;6.192;2023-04-15T02:32:44;9.60;;;6.00;;
18102;SDS011;9178;51.120;6.192;2023-04-15T02:35:13;9.43;;;5.50;;
18102;SDS011;9178;51.120;6.192;2023-04-15T02:37:44;8.33;;;5.33;;
18102;SDS011;9178;51.120;6.192;2023-04-15T02:40:11;6.93;;;5.10;;
18102;SDS011;9178;51.120;6.192;2023-04-15T02:42:38;8.80;;;4.90;;
18102;SDS011;9178;51.120;6.192;2023-04-15T02:45:06;6.97;;;4.80;;
18102;SDS011;9178;51.120;6.192;2023-04-15T02:47:33;8.80;;;5.17;;
18102;SDS011;9178;51.120;6.192;2023-04-15T02:50:01;13.10;;;5.53;;
18102;SDS011;9178;51.120;6.192;2023-04-15T02:52:30;8.07;;;4.90;;
18102;SDS011;9178;51.120;6.192;2023-04-15T02:54:57;9.13;;;5.47;;
18102;SDS011;9178;51.120;6.192;2023-04-15T02:57:26;8.57;;;5.20;;
18102;SDS011;9178;51.120;6.192;2023-04-15T02:59:54;7.83;;;4.87;;
18102;SDS011;9178;51.120;6.192;2023-04-15T03:02:20;6.20;;;4.50;;
18102;SDS011;9178;51.120;6.192;2023-04-15T03:04:47;6.67;;;4.23;;
18102;SDS011;9178;51.120;6.192;2023-04-15T03:07:14;10.93;;;4.97;;
18102;SDS011;9178;51.120;6.192;2023-04-15T03:09:44;7.40;;;4.37;;
18102;SDS011;9178;51.120;6.192;2023-04-15T03:12:11;12.27;;;4.60;;
18102;SDS011;9178;51.120;6.192;2023-04-15T03:14:38;6.20;;;4.47;;
18102;SDS011;9178;51.120;6.192;2023-04-15T03:17:05;8.03;;;4.63;;
18102;SDS011;9178;51.120;6.192;2023-04-15T03:19:35;8.10;;;4.60;;
18102;SDS011;9178;51.120;6.192;2023-04-15T03:22:02;7.53;;;4.77;;
18102;SDS011;9178;51.120;6.192;2023-04-15T03:24:29;11.03;;;5.83;;
18102;SDS011;9178;51.120;6.192;2023-04-15T03:26:57;9.17;;;6.33;;
18102;SDS011;9178;51.120;6.192;2023-04-15T03:29:25;7.60;;;5.50;;
18102;SDS011;9178;51.120;6.192;2023-04-15T03:31:52;7.17;;;5.13;;
18102;SDS011;9178;51.120;6.192;2023-04-15T03:34:19;5.37;;;4.77;;
18102;SDS011;9178;51.120;6.192;2023-04-15T03:36:45;10.07;;;5.03;;
18102;SDS011;9178;51.120;6.192;2023-04-15T03:39:12;8.23;;;4.90;;
18102;SDS011;9178;51.120;6.192;2023-04-15T03:41:40;7.63;;;5.10;;
18102;SDS011;9178;51.120;6.192;2023-04-15T03:44:10;8.83;;;4.93;;
18102;SDS011;9178;51.120;6.192;2023-04-15T03:46:37;8.10;;;5.53;;
18102;SDS011;9178;51.120;6.192;2023-04-15T03:49:05;5.97;;;4.43;;
18102;SDS011;9178;51.120;6.192;2023-04-15T03:51:32;8.17;;;4.93;;
18102;SDS011;9178;51.120;6.192;2023-04-15T03:53:59;9.37;;;5.60;;
18102;SDS011;9178;51.120;6.192;2023-04-15T03:56:26;9.03;;;5.50;;
18102;SDS011;9178;51.120;6.192;2023-04-15T03:58:53;9.30;;;5.57;;
18102;SDS011;9178;51.120;6.192;2023-04-15T04:01:21;7.47;;;5.20;;
18102;SDS011;9178;51.120;6.192;2023-04-15T04:03:48;8.13;;;5.23;;
18102;SDS011;9178;51.120;6.192;2023-04-15T04:06:15;6.33;;;5.13;;
18102;SDS011;9178;51.120;6.192;2023-04-15T04:08:42;9.17;;;5.47;;
18102;SDS011;9178;51.120;6.192;2023-04-15T04:11:08;8.23;;;5.37;;
18102;SDS011;9178;51.120;6.192;2023-04-15T04:13:35;8.70;;;5.30;;
18102;SDS011;9178;51.120;6.192;2023-04-15T04:16:02;8.53;;;5.30;;
18102;SDS011;9178;51.120;6.192;2023-04-15T04:18:31;9.93;;;5.80;;
18102;SDS011;9178;51.120;6.192;2023-04-15T04:20:58;9.97;;;5.47;;
18102;SDS011;9178;51.120;6.192;2023-04-15T04:23:25;9.10;;;5.00;;
18102;SDS011;9178;51.120;6.192;2023-04-15T04:25:52;11.73;;;5.00;;
18102;SDS011;9178;51.120;6.192;2023-04-15T04:28:19;7.23;;;5.40;;
18102;SDS011;9178;51.120;6.192;2023-04-15T04:30:46;8.27;;;4.83;;
18102;SDS011;9178;51.120;6.192;2023-04-15T04:33:13;8.87;;;4.77;;
18102;SDS011;9178;51.120;6.192;2023-04-15T04:35:41;9.70;;;5.30;;
18102;SDS011;9178;51.120;6.192;2023-04-15T04:38:08;8.20;;;5.17;;
18102;SDS011;9178;51.120;6.192;2023-04-15T04:40:35;10.70;;;5.80;;
18102;SDS011;9178;51.120;6.192;2023-04-15T04:43:02;9.93;;;5.57;;
18102;SDS011;9178;51.120;6.192;2023-04-15T04:45:29;11.27;;;5.70;;
18102;SDS011;9178;51.120;6.192;2023-04-15T04:47:55;10.07;;;6.03;;
18102;SDS011;9178;51.120;6.192;2023-04-15T04:50:22;9.70;;;6.13;;
18102;SDS011;9178;51.120;6.192;2023-04-15T04:52:50;9.40;;;5.70;;
18102;SDS011;9178;51.120;6.192;2023-04-15T04:55:17;12.80;;;6.00;;
18102;SDS011;9178;51.120;6.192;2023-04-15T04:57:47;13.87;;;5.90;;
18102;SDS011;9178;51.120;6.192;2023-04-15T05:00:14;8.07;;;5.87;;
18102;SDS011;9178;51.120;6.192;2023-04-15T05:02:41;7.90;;;6.00;;
18102;SDS011;9178;51.120;6.192;2023-04-15T05:05:09;12.70;;;5.87;;
18102;SDS011;9178;51.120;6.192;2023-04-15T05:07:37;8.57;;;6.07;;
18102;SDS011;9178;51.120;6.192;2023-04-15T05:10:06;10.80;;;6.60;;
18102;SDS011;9178;51.120;6.192;2023-04-15T05:12:34;10.33;;;6.30;;
18102;SDS011;9178;51.120;6.192;2023-04-15T05:15:02;12.30;;;6.37;;
18102;SDS011;9178;51.120;6.192;2023-04-15T05:17:30;10.53;;;6.37;;
18102;SDS011;9178;51.120;6.192;2023-04-15T05:19:59;12.27;;;6.60;;
18102;SDS011;9178;51.120;6.192;2023-04-15T05:22:26;10.20;;;6.60;;
18102;SDS011;9178;51.120;6.192;2023-04-15T05:24:52;11.60;;;7.13;;
18102;SDS011;9178;51.120;6.192;2023-04-15T05:27:21;15.23;;;6.80;;
18102;SDS011;9178;51.120;6.192;2023-04-15T05:29:48;10.67;;;6.83;;
18102;SDS011;9178;51.120;6.192;2023-04-15T05:32:15;11.50;;;6.80;;
18102;SDS011;9178;51.120;6.192;2023-04-15T05:34:42;12.17;;;7.70;;
18102;SDS011;9178;51.120;6.192;2023-04-15T05:37:09;12.13;;;7.00;;
18102;SDS011;9178;51.120;6.192;2023-04-15T05:39:36;10.70;;;7.03;;
18102;SDS011;9178;51.120;6.192;2023-04-15T05:42:03;12.03;;;7.37;;
18102;SDS011;9178;51.120;6.192;2023-04-15T05:44:32;10.90;;;7.57;;
18102;SDS011;9178;51.120;6.192;2023-04-15T05:46:59;13.60;;;8.03;;
18102;SDS011;9178;51.120;6.192;2023-04-15T05:49:27;11.23;;;7.73;;
18102;SDS011;9178;51.120;6.192;2023-04-15T05:51:54;12.33;;;7.73;;
18102;SDS011;9178;51.120;6.192;2023-04-15T05:54:21;13.30;;;8.00;;
18102;SDS011;9178;51.120;6.192;2023-04-15T05:56:48;10.27;;;7.80;;
18102;SDS011;9178;51.120;6.192;2023-04-15T05:59:15;15.37;;;8.13;;
18102;SDS011;9178;51.120;6.192;2023-04-15T06:01:43;13.13;;;7.90;;
18102;SDS011;9178;51.120;6.192;2023-04-15T06:04:10;11.77;;;8.13;;
18102;SDS011;9178;51.120;6.192;2023-04-15T06:06:36;12.57;;;8.67;;
18102;SDS011;9178;51.120;6.192;2023-04-15T06:09:04;14.37;;;8.17;;
18102;SDS011;9178;51.120;6.192;2023-04-15T06:11:31;12.63;;;8.17;;
18102;SDS011;9178;51.120;6.192;2023-04-15T06:13:58;14.87;;;8.20;;
18102;SDS011;9178;51.120;6.192;2023-04-15T06:16:25;11.23;;;8.70;;
18102;SDS011;9178;51.120;6.192;2023-04-15T06:18:53;10.67;;;8.20;;
18102;SDS011;9178;51.120;6.192;2023-04-15T06:21:20;10.77;;;7.90;;
18102;SDS011;9178;51.120;6.192;2023-04-15T06:23:47;12.33;;;8.80;;
18102;SDS011;9178;51.120;6.192;2023-04-15T06:26:14;11.33;;;9.20;;
18102;SDS011;9178;51.120;6.192;2023-04-15T06:28:41;15.20;;;9.27;;
18102;SDS011;9178;51.120;6.192;2023-04-15T06:31:08;12.77;;;9.20;;
18102;SDS011;9178;51.120;6.192;2023-04-15T06:33:35;12.03;;;8.97;;
18102;SDS011;9178;51.120;6.192;2023-04-15T06:36:03;13.47;;;8.70;;
18102;SDS011;9178;51.120;6.192;2023-04-15T06:38:30;14.07;;;9.80;;
18102;SDS011;9178;51.120;6.192;2023-04-15T06:40:57;13.57;;;9.70;;
18102;SDS011;9178;51.120;6.192;2023-04-15T06:43:24;14.87;;;9.70;;
18102;SDS011;9178;51.120;6.192;2023-04-15T06:45:50;14.33;;;9.43;;
18102;SDS011;9178;51.120;6.192;2023-04-15T06:48:17;12.50;;;9.43;;
18102;SDS011;9178;51.120;6.192;2023-04-15T06:50:44;12.27;;;9.77;;
18102;SDS011;9178;51.120;6.192;2023-04-15T06:53:13;13.03;;;9.30;;
18102;SDS011;9178;51.120;6.192;2023-04-15T06:55:40;13.37;;;9.67;;
18102;SDS011;9178;51.120;6.192;2023-04-15T06:58:06;14.47;;;8.80;;
18102;SDS011;9178;51.120;6.192;2023-04-15T07:00:33;14.20;;;9.57;;
18102;SDS011;9178;51.120;6.192;2023-04-15T07:03:03;13.30;;;9.27;;
18102;SDS011;9178;51.120;6.192;2023-04-15T07:05:29;12.90;;;9.33;;
18102;SDS011;9178;51.120;6.192;2023-04-15T07:07:57;12.53;;;9.50;;
18102;SDS011;9178;51.120;6.192;2023-04-15T07:10:25;13.50;;;9.80;;
18102;SDS011;9178;51.120;6.192;2023-04-15T07:12:52;14.40;;;9.70;;
18102;SDS011;9178;51.120;6.192;2023-04-15T07:15:19;12.33;;;9.57;;
18102;SDS011;9178;51.120;6.192;2023-04-15T07:17:46;14.07;;;9.73;;
18102;SDS011;9178;51.120;6.192;2023-04-15T07:20:13;13.67;;;9.47;;
18102;SDS011;9178;51.120;6.192;2023-04-15T07:22:40;12.60;;;9.93;;
18102;SDS011;9178;51.120;6.192;2023-04-15T07:25:08;13.27;;;10.00;;
18102;SDS011;9178;51.120;6.192;2023-04-15T07:27:36;16.20;;;9.37;;
18102;SDS011;9178;51.120;6.192;2023-04-15T07:30:04;14.60;;;9.97;;
18102;SDS011;9178;51.120;6.192;2023-04-15T07:32:31;13.97;;;9.73;;
18102;SDS011;9178;51.120;6.192;2023-04-15T07:35:01;14.23;;;10.17;;
18102;SDS011;9178;51.120;6.192;2023-04-15T07:37:28;17.00;;;10.10;;
18102;SDS011;9178;51.120;6.192;2023-04-15T07:39:55;15.07;;;10.63;;
18102;SDS011;9178;51.120;6.192;2023-04-15T07:42:22;14.73;;;9.70;;
18102;SDS011;9178;51.120;6.192;2023-04-15T07:44:50;12.97;;;10.13;;
18102;SDS011;9178;51.120;6.192;2023-04-15T07:47:17;14.53;;;9.47;;
18102;SDS011;9178;51.120;6.192;2023-04-15T07:49:44;12.47;;;9.03;;
18102;SDS011;9178;51.120;6.192;2023-04-15T07:52:11;13.23;;;10.03;;
18102;SDS011;9178;51.120;6.192;2023-04-15T07:54:38;15.23;;;10.60;;
18102;SDS011;9178;51.120;6.192;2023-04-15T07:57:05;13.63;;;9.83;;
18102;SDS011;9178;51.120;6.192;2023-04-15T07:59:31;15.47;;;10.43;;
18102;SDS011;9178;51.120;6.192;2023-04-15T08:02:02;17.30;;;9.93;;
18102;SDS011;9178;51.120;6.192;2023-04-15T08:04:29;15.37;;;9.87;;
18102;SDS011;9178;51.120;6.192;2023-04-15T08:06:59;15.60;;;9.27;;
18102;SDS011;9178;51.120;6.192;2023-04-15T08:09:25;12.20;;;9.67;;
18102;SDS011;9178;51.120;6.192;2023-04-15T08:11:52;12.80;;;8.70;;
18102;SDS011;9178;51.120;6.192;2023-04-15T08:14:20;12.63;;;8.43;;
18102;SDS011;9178;51.120;6.192;2023-04-15T08:16:49;10.13;;;8.20;;
18102;SDS011;9178;51.120;6.192;2023-04-15T08:19:18;9.60;;;7.53;;
18102;SDS011;9178;51.120;6.192;2023-04-15T08:21:45;8.53;;;7.23;;
18102;SDS011;9178;51.120;6.192;2023-04-15T08:24:12;9.03;;;6.87;;
18102;SDS011;9178;51.120;6.192;2023-04-15T08:26:39;8.03;;;6.90;;
18102;SDS011;9178;51.120;6.192;2023-04-15T08:29:07;8.47;;;6.77;;
18102;SDS011;9178;51.120;6.192;2023-04-15T08:31:34;8.70;;;6.40;;
18102;SDS011;9178;51.120;6.192;2023-04-15T08:34:01;8.60;;;6.27;;
18102;SDS011;9178;51.120;6.192;2023-04-15T09:43:57;5.50;;;3.10;;
18102;SDS011;9178;51.120;6.192;2023-04-15T09:49:06;3.30;;;3.00;;
18102;SDS011;9178;51.120;6.192;2023-04-15T09:51:34;4.67;;;3.20;;
18102;SDS011;9178;51.120;6.192;2023-04-15T09:54:01;4.47;;;3.40;;
18102;SDS011;9178;51.120;6.192;2023-04-15T09:56:31;5.27;;;3.40;;
18102;SDS011;9178;51.120;6.192;2023-04-15T09:59:01;3.80;;;3.40;;
18102;SDS011;9178;51.120;6.192;2023-04-15T10:01:28;4.20;;;3.40;;
18102;SDS011;9178;51.120;6.192;2023-04-15T10:03:56;4.43;;;3.73;;
18102;SDS011;9178;51.120;6.192;2023-04-15T10:06:24;5.03;;;3.33;;
18102;SDS011;9178;51.120;6.192;2023-04-15T10:08:52;2.67;;;2.47;;
18102;SDS011;9178;51.120;6.192;2023-04-15T10:11:21;2.47;;;2.27;;
18102;SDS011;9178;51.120;6.192;2023-04-15T10:13:48;2.87;;;2.67;;
18102;SDS011;9178;51.120;6.192;2023-04-15T10:16:18;2.40;;;2.20;;
18102;SDS011;9178;51.120;6.192;2023-04-15T10:18:48;2.73;;;2.53;;
18102;SDS011;9178;51.120;6.192;2023-04-15T10:21:20;2.83;;;2.63;;
18102;SDS011;9178;51.120;6.192;2023-04-15T10:23:47;4.67;;;2.90;;
18102;SDS011;9178;51.120;6.192;2023-04-15T10:29:19;3.10;;;2.90;;
18102;SDS011;9178;51.120;6.192;2023-04-15T10:31:48;4.40;;;3.38;;
18102;SDS011;9178;51.120;6.192;2023-04-15T10:34:15;3.17;;;2.72;;
18102;SDS011;9178;51.120;6.192;2023-04-15T10:36:42;5.20;;;2.60;;
18102;SDS011;9178;51.120;6.192;2023-04-15T10:42:07;2.80;;;2.60;;
18102;SDS011;9178;51.120;6.192;2023-04-15T10:44:36;3.00;;;2.70;;
18102;SDS011;9178;51.120;6.192;2023-04-15T10:47:10;3.73;;;3.20;;
18102;SDS011;9178;51.120;6.192;2023-04-15T10:49:47;2.63;;;2.42;;
18102;SDS011;9178;51.120;6.192;2023-04-15T10:52:16;3.15;;;2.80;;
18102;SDS011;9178;51.120;6.192;2023-04-15T10:54:44;3.15;;;2.58;;
18102;SDS011;9178;51.120;6.192;2023-04-15T10:57:15;3.05;;;2.70;;
18102;SDS011;9178;51.120;6.192;2023-04-15T10:59:59;3.65;;;3.10;;
18102;SDS011;9178;51.120;6.192;2023-04-15T11:02:41;3.45;;;2.75;;
18102;SDS011;9178;51.120;6.192;2023-04-15T11:05:10;2.88;;;2.67;;
18102;SDS011;9178;51.120;6.192;2023-04-15T11:07:46;3.40;;;3.10;;
18102;SDS011;9178;51.120;6.192;2023-04-15T11:13:15;3.40;;;2.83;;
18102;SDS011;9178;51.120;6.192;2023-04-15T11:15:46;3.10;;;2.80;;
18102;SDS011;9178;51.120;6.192;2023-04-15T11:18:15;2.40;;;2.20;;
18102;SDS011;9178;51.120;6.192;2023-04-15T11:20:43;2.97;;;2.60;;
18102;SDS011;9178;51.120;6.192;2023-04-15T11:23:12;2.47;;;2.28;;
18102;SDS011;9178;51.120;6.192;2023-04-15T11:25:41;2.50;;;2.25;;
18102;SDS011;9178;51.120;6.192;2023-04-15T11:28:10;2.33;;;2.13;;
18102;SDS011;9178;51.120;6.192;2023-04-15T11:30:38;3.05;;;2.40;;
18102;SDS011;9178;51.120;6.192;2023-04-15T11:33:07;3.80;;;2.53;;
18102;SDS011;9178;51.120;6.192;2023-04-15T11:35:38;2.53;;;2.30;;
18102;SDS011;9178;51.120;6.192;2023-04-15T11:38:09;2.55;;;2.22;;
18102;SDS011;9178;51.120;6.192;2023-04-15T11:40:37;2.05;;;1.90;;
18102;SDS011;9178;51.120;6.192;2023-04-15T11:43:05;2.10;;;2.00;;
18102;SDS011;9178;51.120;6.192;2023-04-15T11:45:33;2.47;;;2.28;;
18102;SDS011;9178;51.120;6.192;2023-04-15T11:48:04;2.78;;;2.58;;
18102;SDS011;9178;51.120;6.192;2023-04-15T11:50:33;2.65;;;2.30;;
18102;SDS011;9178;51.120;6.192;2023-04-15T11:53:01;2.67;;;2.20;;
18102;SDS011;9178;51.120;6.192;2023-04-15T11:55:31;3.92;;;1.70;;
18102;SDS011;9178;51.120;6.192;2023-04-15T11:58:07;3.38;;;2.20;;
18102;SDS011;9178;51.120;6.192;2023-04-15T12:00:36;2.40;;;2.15;;
18102;SDS011;9178;51.120;6.192;2023-04-15T12:03:16;1.67;;;1.58;;
18102;SDS011;9178;51.120;6.192;2023-04-15T12:09:00;2.00;;;1.90;;
18102;SDS011;9178;51.120;6.192;2023-04-15T12:11:36;2.13;;;1.92;;
18102;SDS011;9178;51.120;6.192;2023-04-15T12:14:08;1.60;;;1.50;;
18102;SDS011;9178;51.120;6.192;2023-04-15T12:16:38;1.98;;;1.88;;
18102;SDS011;9178;51.120;6.192;2023-04-15T12:19:08;1.85;;;1.63;;
18102;SDS011;9178;51.120;6.192;2023-04-15T12:21:37;3.10;;;2.10;;
18102;SDS011;9178;51.120;6.192;2023-04-15T12:24:06;2.53;;;2.08;;
18102;SDS011;9178;51.120;6.192;2023-04-15T12:26:35;1.90;;;1.80;;
18102;SDS011;9178;51.120;6.192;2023-04-15T12:29:04;3.30;;;1.98;;
18102;SDS011;9178;51.120;6.192;2023-04-15T12:31:32;2.75;;;2.30;;
18102;SDS011;9178;51.120;6.192;2023-04-15T12:33:59;3.13;;;2.10;;
18102;SDS011;9178;51.120;6.192;2023-04-15T12:36:29;2.40;;;2.20;;
18102;SDS011;9178;51.120;6.192;2023-04-15T12:39:00;2.58;;;1.92;;
18102;SDS011;9178;51.120;6.192;2023-04-15T12:41:29;1.70;;;1.60;;
18102;SDS011;9178;51.120;6.192;2023-04-15T12:43:56;1.80;;;1.70;;
18102;SDS011;9178;51.120;6.192;2023-04-15T12:46:22;1.90;;;1.70;;
18102;SDS011;9178;51.120;6.192;2023-04-15T12:48:49;1.50;;;1.40;;
18102;SDS011;9178;51.120;6.192;2023-04-15T12:51:17;2.10;;;1.90;;
18102;SDS011;9178;51.120;6.192;2023-04-15T12:53:45;2.78;;;2.03;;
18102;SDS011;9178;51.120;6.192;2023-04-15T12:56:13;2.95;;;2.10;;
18102;SDS011;9178;51.120;6.192;2023-04-15T12:58:42;2.10;;;1.90;;
18102;SDS011;9178;51.120;6.192;2023-04-15T13:01:08;2.95;;;2.00;;
18102;SDS011;9178;51.120;6.192;2023-04-15T13:03:35;2.92;;;2.10;;
18102;SDS011;9178;51.120;6.192;2023-04-15T13:06:02;1.80;;;1.70;;
18102;SDS011;9178;51.120;6.192;2023-04-15T13:08:30;3.22;;;1.75;;
18102;SDS011;9178;51.120;6.192;2023-04-15T13:10:57;4.63;;;2.20;;
18102;SDS011;9178;51.120;6.192;2023-04-15T13:13:24;3.17;;;2.47;;
18102;SDS011;9178;51.120;6.192;2023-04-15T13:15:52;2.30;;;2.13;;
18102;SDS011;9178;51.120;6.192;2023-04-15T13:18:19;2.20;;;1.90;;
18102;SDS011;9178;51.120;6.192;2023-04-15T13:20:47;2.35;;;2.03;;
18102;SDS011;9178;51.120;6.192;2023-04-15T13:23:14;1.73;;;1.63;;
18102;SDS011;9178;51.120;6.192;2023-04-15T13:25:50;3.35;;;2.60;;
18102;SDS011;9178;51.120;6.192;2023-04-15T13:28:17;1.65;;;1.55;;
18102;SDS011;9178;51.120;6.192;2023-04-15T13:30:45;1.40;;;1.30;;
18102;SDS011;9178;51.120;6.192;2023-04-15T13:33:15;2.13;;;1.92;;
18102;SDS011;9178;51.120;6.192;2023-04-15T13:35:42;1.33;;;1.23;;
18102;SDS011;9178;51.120;6.192;2023-04-15T13:38:09;1.85;;;1.40;;
18102;SDS011;9178;51.120;6.192;2023-04-15T13:40:36;4.63;;;1.52;;
18102;SDS011;9178;51.120;6.192;2023-04-15T13:43:03;1.58;;;1.40;;
18102;SDS011;9178;51.120;6.192;2023-04-15T13:45:30;1.73;;;1.20;;
18102;SDS011;9178;51.120;6.192;2023-04-15T13:47:57;1.50;;;1.40;;
18102;SDS011;9178;51.120;6.192;2023-04-15T13:50:27;1.58;;;1.42;;
18102;SDS011;9178;51.120;6.192;2023-04-15T13:52:54;2.75;;;1.67;;
18102;SDS011;9178;51.120;6.192;2023-04-15T13:55:21;4.53;;;1.77;;
18102;SDS011;9178;51.120;6.192;2023-04-15T13:57:48;2.45;;;2.08;;
18102;SDS011;9178;51.120;6.192;2023-04-15T14:00:15;2.10;;;1.50;;
18102;SDS011;9178;51.120;6.192;2023-04-15T14:02:42;1.98;;;1.65;;
18102;SDS011;9178;51.120;6.192;2023-04-15T14:05:09;1.60;;;1.50;;
18102;SDS011;9178;51.120;6.192;2023-04-15T14:07:38;4.78;;;1.98;;
18102;SDS011;9178;51.120;6.192;2023-04-15T14:10:05;2.05;;;1.50;;
18102;SDS011;9178;51.120;6.192;2023-04-15T14:12:32;2.55;;;1.58;;
18102;SDS011;9178;51.120;6.192;2023-04-15T14:14:59;2.00;;;1.52;;
18102;SDS011;9178;51.120;6.192;2023-04-15T14:17:26;2.90;;;1.45;;
18102;SDS011;9178;51.120;6.192;2023-04-15T14:19:53;1.77;;;1.60;;
18102;SDS011;9178;51.120;6.192;2023-04-15T14:22:20;3.37;;;1.77;;
18102;SDS011;9178;51.120;6.192;2023-04-15T14:24:48;2.30;;;1.53;;
18102;SDS011;9178;51.120;6.192;2023-04-15T14:27:17;3.13;;;1.43;;
18102;SDS011;9178;51.120;6.192;2023-04-15T14:29:44;1.60;;;1.50;;
18102;SDS011;9178;51.120;6.192;2023-04-15T14:32:11;1.27;;;1.17;;
18102;SDS011;9178;51.120;6.192;2023-04-15T14:34:38;1.75;;;1.50;;
18102;SDS011;9178;51.120;6.192;2023-04-15T14:37:05;1.40;;;1.05;;
18102;SDS011;9178;51.120;6.192;2023-04-15T14:39:32;2.35;;;1.15;;
18102;SDS011;9178;51.120;6.192;2023-04-15T14:42:00;1.20;;;1.08;;
18102;SDS011;9178;51.120;6.192;2023-04-15T14:44:28;1.65;;;1.00;;
18102;SDS011;9178;51.120;6.192;2023-04-15T14:46:55;2.10;;;0.70;;
18102;SDS011;9178;51.120;6.192;2023-04-15T14:49:22;1.75;;;0.85;;
18102;SDS011;9178;51.120;6.192;2023-04-15T14:51:50;1.98;;;1.00;;
18102;SDS011;9178;51.120;6.192;2023-04-15T14:54:16;2.22;;;1.02;;
18102;SDS011;9178;51.120;6.192;2023-04-15T14:56:43;2.08;;;0.80;;
18102;SDS011;9178;51.120;6.192;2023-04-15T14:59:11;0.80;;;0.80;;
18102;SDS011;9178;51.120;6.192;2023-04-15T15:01:39;2.53;;;1.10;;
18102;SDS011;9178;51.120;6.192;2023-04-15T15:04:06;3.00;;;0.95;;
18102;SDS011;9178;51.120;6.192;2023-04-15T15:06:33;1.40;;;1.10;;
18102;SDS011;9178;51.120;6.192;2023-04-15T15:09:02;1.23;;;0.75;;
18102;SDS011;9178;51.120;6.192;2023-04-15T15:11:29;1.00;;;0.90;;
18102;SDS011;9178;51.120;6.192;2023-04-15T15:13:59;1.23;;;0.82;;
18102;SDS011;9178;51.120;6.192;2023-04-15T15:16:27;1.15;;;0.90;;
18102;SDS011;9178;51.120;6.192;2023-04-15T15:18:54;1.63;;;0.90;;
18102;SDS011;9178;51.120;6.192;2023-04-15T15:21:21;0.85;;;0.80;;
18102;SDS011;9178;51.120;6.192;2023-04-15T15:23:48;1.63;;;0.93;;
18102;SDS011;9178;51.120;6.192;2023-04-15T15:26:14;2.60;;;0.90;;
18102;SDS011;9178;51.120;6.192;2023-04-15T15:28:41;1.00;;;0.90;;
18102;SDS011;9178;51.120;6.192;2023-04-15T15:31:10;1.98;;;1.08;;
18102;SDS011;9178;51.120;6.192;2023-04-15T15:33:39;1.55;;;0.95;;
18102;SDS011;9178;51.120;6.192;2023-04-15T15:36:05;0.80;;;0.80;;
18102;SDS011;9178;51.120;6.192;2023-04-15T15:38:32;2.35;;;0.77;;
18102;SDS011;9178;51.120;6.192;2023-04-15T15:40:59;0.80;;;0.75;;
18102;SDS011;9178;51.120;6.192;2023-04-15T15:43:26;1.70;;;1.00;;
18102;SDS011;9178;51.120;6.192;2023-04-15T15:45:53;3.23;;;1.20;;
18102;SDS011;9178;51.120;6.192;2023-04-15T15:48:20;1.10;;;0.93;;
18102;SDS011;9178;51.120;6.192;2023-04-15T15:50:49;1.17;;;0.90;;
18102;SDS011;9178;51.120;6.192;2023-04-15T15:53:19;3.03;;;1.70;;
18102;SDS011;9178;51.120;6.192;2023-04-15T15:55:48;2.30;;;1.27;;
18102;SDS011;9178;51.120;6.192;2023-04-15T15:58:15;1.00;;;0.90;;
18102;SDS011;9178;51.120;6.192;2023-04-15T16:00:42;3.13;;;1.23;;
18102;SDS011;9178;51.120;6.192;2023-04-15T16:03:09;2.13;;;1.27;;
18102;SDS011;9178;51.120;6.192;2023-04-15T16:05:36;1.47;;;1.37;;
18102;SDS011;9178;51.120;6.192;2023-04-15T16:08:05;1.47;;;1.07;;
18102;SDS011;9178;51.120;6.192;2023-04-15T16:10:32;2.67;;;1.03;;
18102;SDS011;9178;51.120;6.192;2023-04-15T16:12:59;1.47;;;1.00;;
18102;SDS011;9178;51.120;6.192;2023-04-15T16:15:26;0.90;;;0.90;;
18102;SDS011;9178;51.120;6.192;2023-04-15T16:17:53;2.73;;;1.20;;
18102;SDS011;9178;51.120;6.192;2023-04-15T16:20:20;4.03;;;1.30;;
18102;SDS011;9178;51.120;6.192;2023-04-15T16:22:47;2.00;;;0.93;;